createdAt,value
2015-09-26T00:00:15.299Z,100042
2015-09-26T00:00:33.658Z,100045
2015-09-26T00:00:52.018Z,100045
2015-09-26T00:01:10.379Z,100048
2015-09-26T00:01:28.738Z,100054
2015-09-26T00:01:47.098Z,100042
2015-09-26T00:02:05.457Z,100039
2015-09-26T00:02:23.819Z,100051
2015-09-26T00:02:42.319Z,100042
2015-09-26T00:03:00.663Z,100048
2015-09-26T00:03:19.026Z,100054
2015-09-26T00:03:37.385Z,100051
2015-09-26T00:03:55.744Z,100062
2015-09-26T00:04:14.106Z,100042
2015-09-26T00:04:32.465Z,100045
2015-09-26T00:04:50.824Z,100048
2015-09-26T00:05:09.184Z,100045
2015-09-26T00:05:27.547Z,100042
2015-09-26T00:05:45.922Z,100054
2015-09-26T00:06:04.266Z,100048
2015-09-26T00:06:22.627Z,100045
2015-09-26T00:06:40.987Z,100051
2015-09-26T00:06:59.346Z,100048
2015-09-26T00:07:17.707Z,100042
2015-09-26T00:07:36.067Z,100054
2015-09-26T00:07:54.426Z,100054
2015-09-26T00:08:12.786Z,100045
2015-09-26T00:08:31.149Z,100056
2015-09-26T00:08:49.508Z,100048
2015-09-26T00:09:07.868Z,100051
2015-09-26T00:09:26.229Z,100045
2015-09-26T00:09:44.588Z,100054
2015-09-26T00:10:02.948Z,100048
2015-09-26T00:10:21.295Z,100051
2015-09-26T00:10:39.654Z,100056
2015-09-26T00:10:58.029Z,100054
2015-09-26T00:11:16.388Z,100054
2015-09-26T00:11:34.735Z,100051
2015-09-26T00:11:53.094Z,100045
2015-09-26T00:12:11.454Z,100048
2015-09-26T00:12:29.815Z,100051
2015-09-26T00:12:48.175Z,100054
2015-09-26T00:13:06.534Z,100059
2015-09-26T00:13:24.912Z,100056
2015-09-26T00:13:43.271Z,100048
2015-09-26T00:14:01.615Z,100059
2015-09-26T00:14:19.977Z,100056
2015-09-26T00:14:38.337Z,100054
2015-09-26T00:14:56.696Z,100048
2015-09-26T00:15:15.056Z,100039
2015-09-26T00:15:32.762Z,100054
2015-09-26T00:15:51.121Z,100054
2015-09-26T00:16:09.480Z,100062
2015-09-26T00:16:27.842Z,100054
2015-09-26T00:16:46.217Z,100045
2015-09-26T00:17:04.561Z,100051
2015-09-26T00:17:22.923Z,100051
2015-09-26T00:17:41.282Z,100048
2015-09-26T00:17:59.642Z,100051
2015-09-26T00:18:18.001Z,100045
2015-09-26T00:18:35.707Z,100042
2015-09-26T00:18:54.067Z,100039
2015-09-26T00:19:12.426Z,100039
2015-09-26T00:19:30.131Z,100054
2015-09-26T00:19:48.490Z,100048
2015-09-26T00:20:06.850Z,100045
2015-09-26T00:20:25.337Z,100048
2015-09-26T00:20:43.697Z,100048
2015-09-26T00:21:02.056Z,100048
2015-09-26T00:21:20.415Z,100048
2015-09-26T00:21:38.778Z,100042
2015-09-26T00:21:57.137Z,100048
2015-09-26T00:22:15.496Z,100051
2015-09-26T00:22:33.858Z,100051
2015-09-26T00:22:52.358Z,100051
2015-09-26T00:23:10.045Z,100051
2015-09-26T00:23:28.408Z,100048
2015-09-26T00:23:46.783Z,100054
2015-09-26T00:24:05.142Z,100059
2015-09-26T00:24:23.486Z,100042
2015-09-26T00:24:41.848Z,100051
2015-09-26T00:25:00.208Z,100054
2015-09-26T00:25:18.567Z,100042
2015-09-26T00:25:36.929Z,100051
2015-09-26T00:25:55.289Z,100051
2015-09-26T00:26:13.648Z,100045
2015-09-26T00:26:32.009Z,100051
2015-09-26T00:26:50.384Z,100042
2015-09-26T00:27:08.728Z,100051
2015-09-26T00:27:27.088Z,100048
2015-09-26T00:27:45.450Z,100045
2015-09-26T00:28:03.809Z,100037
2015-09-26T00:28:22.169Z,100045
2015-09-26T00:28:40.547Z,100045
2015-09-26T00:28:58.906Z,100045
2015-09-26T00:29:17.250Z,100051
2015-09-26T00:29:35.612Z,100045
2015-09-26T00:29:53.972Z,100051
2015-09-26T00:30:12.180Z,100054
2015-09-26T00:30:30.539Z,100056
2015-09-26T00:30:48.745Z,100056
2015-09-26T00:31:07.120Z,100048
2015-09-26T00:31:24.854Z,100048
2015-09-26T00:31:43.075Z,100054
2015-09-26T00:32:01.403Z,100051
2015-09-26T00:32:19.455Z,100056
2015-09-26T00:32:37.656Z,100051
2015-09-26T00:32:56.016Z,100045
2015-09-26T00:33:14.375Z,100059
2015-09-26T00:33:32.734Z,100048
2015-09-26T00:33:51.097Z,100051
2015-09-26T00:34:09.456Z,100054
2015-09-26T00:34:27.816Z,100056
2015-09-26T00:34:46.177Z,100056
2015-09-26T00:35:04.536Z,100045
2015-09-26T00:35:22.896Z,100048
2015-09-26T00:35:41.259Z,100056
2015-09-26T00:35:59.618Z,100054
2015-09-26T00:36:17.978Z,100045
2015-09-26T00:36:36.337Z,100045
2015-09-26T00:36:54.699Z,100051
2015-09-26T00:37:13.058Z,100042
2015-09-26T00:37:31.417Z,100051
2015-09-26T00:37:49.622Z,100059
2015-09-26T00:38:07.982Z,100051
2015-09-26T00:38:26.341Z,100045
2015-09-26T00:38:44.704Z,100056
2015-09-26T00:39:03.063Z,100054
2015-09-26T00:39:21.422Z,100056
2015-09-26T00:39:39.782Z,100054
2015-09-26T00:39:58.144Z,100054
2015-09-26T00:40:16.503Z,100037
2015-09-26T00:40:34.863Z,100051
2015-09-26T00:40:53.225Z,100045
2015-09-26T00:41:11.585Z,100051
2015-09-26T00:41:29.944Z,100045
2015-09-26T00:41:47.650Z,100042
2015-09-26T00:42:06.009Z,100051
2015-09-26T00:42:24.369Z,100054
2015-09-26T00:42:42.075Z,100051
2015-09-26T00:43:00.434Z,100048
2015-09-26T00:43:18.934Z,100048
2015-09-26T00:43:37.294Z,100051
2015-09-26T00:43:55.654Z,100045
2015-09-26T00:44:13.998Z,100048
2015-09-26T00:44:32.357Z,100054
2015-09-26T00:44:50.721Z,100048
2015-09-26T00:45:08.424Z,100048
2015-09-26T00:45:26.783Z,100054
2015-09-26T00:45:45.144Z,100048
2015-09-26T00:46:03.551Z,100056
2015-09-26T00:46:21.894Z,100051
2015-09-26T00:46:40.254Z,100056
2015-09-26T00:46:58.616Z,100054
2015-09-26T00:47:16.976Z,100051
2015-09-26T00:47:35.335Z,100051
2015-09-26T00:47:53.697Z,100042
2015-09-26T00:48:12.072Z,100059
2015-09-26T00:48:30.416Z,100037
2015-09-26T00:48:48.778Z,100048
2015-09-26T00:49:07.138Z,100042
2015-09-26T00:49:25.497Z,100037
2015-09-26T00:49:43.200Z,100042
2015-09-26T00:50:01.562Z,100048
2015-09-26T00:50:19.905Z,100045
2015-09-26T00:50:38.265Z,100054
2015-09-26T00:50:56.627Z,100056
2015-09-26T00:51:14.987Z,100048
2015-09-26T00:51:33.346Z,100054
2015-09-26T00:51:51.708Z,100054
2015-09-26T00:52:10.068Z,100048
2015-09-26T00:52:28.427Z,100045
2015-09-26T00:52:46.615Z,100045
2015-09-26T00:53:04.335Z,100054
2015-09-26T00:53:22.538Z,100051
2015-09-26T00:53:40.898Z,100051
2015-09-26T00:53:59.260Z,100059
2015-09-26T00:54:17.620Z,100059
2015-09-26T00:54:35.963Z,100045
2015-09-26T00:54:54.326Z,100042
2015-09-26T00:55:12.701Z,100054
2015-09-26T00:55:31.044Z,100051
2015-09-26T00:55:49.419Z,100056
2015-09-26T00:56:07.781Z,100056
2015-09-26T00:56:26.156Z,100051
2015-09-26T00:56:44.484Z,100054
2015-09-26T00:57:02.846Z,100059
2015-09-26T00:57:21.206Z,100056
2015-09-26T00:57:39.565Z,100056
2015-09-26T00:57:57.927Z,100059
2015-09-26T00:58:16.287Z,100051
2015-09-26T00:58:34.646Z,100051
2015-09-26T00:58:53.006Z,100062
2015-09-26T00:59:11.368Z,100056
2015-09-26T00:59:29.712Z,100056
2015-09-26T00:59:48.071Z,100051
2015-09-26T01:00:06.432Z,100054
2015-09-26T01:00:24.792Z,100065
2015-09-26T01:00:43.151Z,100056
2015-09-26T01:01:01.514Z,100065
2015-09-26T01:01:19.873Z,100048
2015-09-26T01:01:38.232Z,100059
2015-09-26T01:01:55.935Z,100054
2015-09-26T01:02:14.298Z,100048
2015-09-26T01:02:32.657Z,100051
2015-09-26T01:02:51.001Z,100056
2015-09-26T01:03:09.362Z,100051
2015-09-26T01:03:27.081Z,100056
2015-09-26T01:03:45.440Z,100051
2015-09-26T01:04:03.788Z,100056
2015-09-26T01:04:22.148Z,100062
2015-09-26T01:04:40.507Z,100054
2015-09-26T01:04:58.868Z,100054
2015-09-26T01:05:17.228Z,100051
2015-09-26T01:05:35.712Z,100059
2015-09-26T01:05:52.775Z,100059
2015-09-26T01:06:11.137Z,100062
2015-09-26T01:06:29.481Z,100062
2015-09-26T01:06:47.856Z,100065
2015-09-26T01:07:06.217Z,100056
2015-09-26T01:07:24.561Z,100051
2015-09-26T01:07:42.920Z,100062
2015-09-26T01:08:01.283Z,100054
2015-09-26T01:08:19.642Z,100056
2015-09-26T01:08:38.001Z,100051
2015-09-26T01:08:56.361Z,100048
2015-09-26T01:09:14.723Z,100051
2015-09-26T01:09:33.082Z,100056
2015-09-26T01:09:51.442Z,100054
2015-09-26T01:10:09.804Z,100056
2015-09-26T01:10:28.164Z,100062
2015-09-26T01:10:46.523Z,100056
2015-09-26T01:11:04.884Z,100059
2015-09-26T01:11:23.244Z,100065
2015-09-26T01:11:41.603Z,100070
2015-09-26T01:11:59.962Z,100062
2015-09-26T01:12:18.325Z,100062
2015-09-26T01:12:36.684Z,100062
2015-09-26T01:12:55.044Z,100065
2015-09-26T01:13:13.405Z,100062
2015-09-26T01:13:31.764Z,100056
2015-09-26T01:13:50.108Z,100056
2015-09-26T01:14:08.470Z,100054
2015-09-26T01:14:26.189Z,100054
2015-09-26T01:14:44.533Z,100065
2015-09-26T01:15:02.908Z,100056
2015-09-26T01:15:21.270Z,100056
2015-09-26T01:15:39.614Z,100054
2015-09-26T01:15:57.973Z,100062
2015-09-26T01:16:16.195Z,100054
2015-09-26T01:16:34.555Z,100059
2015-09-26T01:16:52.898Z,100054
2015-09-26T01:17:11.276Z,100048
2015-09-26T01:17:29.620Z,100062
2015-09-26T01:17:47.979Z,100056
2015-09-26T01:18:06.339Z,100062
2015-09-26T01:18:24.700Z,100068
2015-09-26T01:18:43.060Z,100059
2015-09-26T01:19:01.419Z,100065
2015-09-26T01:19:19.781Z,100062
2015-09-26T01:19:38.156Z,100056
2015-09-26T01:19:56.500Z,100056
2015-09-26T01:20:14.862Z,100065
2015-09-26T01:20:33.222Z,100062
2015-09-26T01:20:51.581Z,100059
2015-09-26T01:21:09.941Z,100062
2015-09-26T01:21:28.303Z,100070
2015-09-26T01:21:46.662Z,100062
2015-09-26T01:22:05.022Z,100068
2015-09-26T01:22:23.384Z,100070
2015-09-26T01:22:41.087Z,100054
2015-09-26T01:22:59.447Z,100075
2015-09-26T01:23:17.808Z,100075
2015-09-26T01:23:35.511Z,100059
2015-09-26T01:23:53.870Z,100065
2015-09-26T01:24:12.230Z,100065
2015-09-26T01:24:30.592Z,100065
2015-09-26T01:24:48.295Z,100068
2015-09-26T01:25:06.655Z,100065
2015-09-26T01:25:25.016Z,100059
2015-09-26T01:25:43.375Z,100062
2015-09-26T01:26:01.735Z,100059
2015-09-26T01:26:20.097Z,100056
2015-09-26T01:26:38.582Z,100056
2015-09-26T01:26:56.941Z,100062
2015-09-26T01:27:15.300Z,100070
2015-09-26T01:27:33.663Z,100062
2015-09-26T01:27:52.038Z,100068
2015-09-26T01:28:10.381Z,100070
2015-09-26T01:28:28.744Z,100059
2015-09-26T01:28:47.103Z,100065
2015-09-26T01:29:05.463Z,100056
2015-09-26T01:29:23.825Z,100068
2015-09-26T01:29:42.184Z,100065
2015-09-26T01:30:00.559Z,100062
2015-09-26T01:30:18.903Z,100070
2015-09-26T01:30:37.264Z,100062
2015-09-26T01:30:55.624Z,100075
2015-09-26T01:31:13.983Z,100062
2015-09-26T01:31:32.346Z,100070
2015-09-26T01:31:50.705Z,100068
2015-09-26T01:32:09.064Z,100068
2015-09-26T01:32:27.427Z,100075
2015-09-26T01:32:45.786Z,100062
2015-09-26T01:33:04.145Z,100062
2015-09-26T01:33:22.489Z,100065
2015-09-26T01:33:40.852Z,100068
2015-09-26T01:33:59.211Z,100068
2015-09-26T01:34:17.570Z,100068
2015-09-26T01:34:35.916Z,100059
2015-09-26T01:34:54.275Z,100062
2015-09-26T01:35:12.635Z,100070
2015-09-26T01:35:30.997Z,100070
2015-09-26T01:35:49.357Z,100062
2015-09-26T01:36:07.700Z,100068
2015-09-26T01:36:26.063Z,100068
2015-09-26T01:36:44.422Z,100065
2015-09-26T01:37:02.781Z,100068
2015-09-26T01:37:21.156Z,100070
2015-09-26T01:37:39.487Z,100062
2015-09-26T01:37:57.846Z,100070
2015-09-26T01:38:16.205Z,100068
2015-09-26T01:38:34.568Z,100075
2015-09-26T01:38:52.927Z,100070
2015-09-26T01:39:11.286Z,100070
2015-09-26T01:39:29.632Z,100070
2015-09-26T01:39:47.992Z,100084
2015-09-26T01:40:06.351Z,100084
2015-09-26T01:40:24.695Z,100075
2015-09-26T01:40:43.058Z,100070
2015-09-26T01:41:01.417Z,100084
2015-09-26T01:41:19.777Z,100065
2015-09-26T01:41:38.138Z,100068
2015-09-26T01:41:56.498Z,100065
2015-09-26T01:42:14.841Z,100075
2015-09-26T01:42:33.204Z,100078
2015-09-26T01:42:51.563Z,100068
2015-09-26T01:43:09.922Z,100068
2015-09-26T01:43:28.282Z,100070
2015-09-26T01:43:46.644Z,100068
2015-09-26T01:44:05.004Z,100075
2015-09-26T01:44:23.347Z,100075
2015-09-26T01:44:41.709Z,100078
2015-09-26T01:45:00.068Z,100075
2015-09-26T01:45:18.427Z,100068
2015-09-26T01:45:36.774Z,100068
2015-09-26T01:45:55.134Z,100065
2015-09-26T01:46:13.493Z,100084
2015-09-26T01:46:31.852Z,100070
2015-09-26T01:46:50.215Z,100075
2015-09-26T01:47:08.699Z,100078
2015-09-26T01:47:26.402Z,100070
2015-09-26T01:47:44.765Z,100081
2015-09-26T01:48:02.468Z,100075
2015-09-26T01:48:20.827Z,100075
2015-09-26T01:48:39.189Z,100070
2015-09-26T01:48:57.533Z,100078
2015-09-26T01:49:15.893Z,100075
2015-09-26T01:49:34.252Z,100070
2015-09-26T01:49:52.613Z,100078
2015-09-26T01:50:10.973Z,100075
2015-09-26T01:50:29.316Z,100075
2015-09-26T01:50:47.678Z,100078
2015-09-26T01:51:06.037Z,100070
2015-09-26T01:51:24.397Z,100075
2015-09-26T01:51:42.759Z,100075
2015-09-26T01:52:01.103Z,100070
2015-09-26T01:52:19.462Z,100075
2015-09-26T01:52:37.821Z,100065
2015-09-26T01:52:56.200Z,100070
2015-09-26T01:53:14.544Z,100078
2015-09-26T01:53:32.888Z,100070
2015-09-26T01:53:51.249Z,100078
2015-09-26T01:54:09.609Z,100070
2015-09-26T01:54:27.968Z,100070
2015-09-26T01:54:46.329Z,100070
2015-09-26T01:55:04.689Z,100078
2015-09-26T01:55:23.048Z,100075
2015-09-26T01:55:41.395Z,100075
2015-09-26T01:55:59.754Z,100070
2015-09-26T01:56:18.114Z,100078
2015-09-26T01:56:36.473Z,100070
2015-09-26T01:56:54.835Z,100075
2015-09-26T01:57:13.210Z,100070
2015-09-26T01:57:31.570Z,100070
2015-09-26T01:57:49.917Z,100070
2015-09-26T01:58:08.276Z,100065
2015-09-26T01:58:26.635Z,100070
2015-09-26T01:58:44.997Z,100070
2015-09-26T01:59:03.356Z,100065
2015-09-26T01:59:21.700Z,100065
2015-09-26T01:59:39.403Z,100059
2015-09-26T01:59:57.765Z,100065
2015-09-26T02:00:16.125Z,100059
2015-09-26T02:00:34.609Z,100065
2015-09-26T02:00:52.971Z,100068
2015-09-26T02:01:11.331Z,100056
2015-09-26T02:01:29.690Z,100075
2015-09-26T02:01:47.396Z,100059
2015-09-26T02:02:05.756Z,100070
2015-09-26T02:02:23.443Z,100068
2015-09-26T02:02:41.803Z,100062
2015-09-26T02:03:00.164Z,100078
2015-09-26T02:03:18.523Z,100075
2015-09-26T02:03:36.898Z,100068
2015-09-26T02:03:55.245Z,100062
2015-09-26T02:04:13.604Z,100062
2015-09-26T02:04:31.948Z,100062
2015-09-26T02:04:50.311Z,100075
2015-09-26T02:05:08.670Z,100070
2015-09-26T02:05:27.029Z,100065
2015-09-26T02:05:45.389Z,100068
2015-09-26T02:06:03.751Z,100070
2015-09-26T02:06:22.110Z,100075
2015-09-26T02:06:39.814Z,100070
2015-09-26T02:06:58.175Z,100070
2015-09-26T02:07:16.534Z,100062
2015-09-26T02:07:34.894Z,100068
2015-09-26T02:07:53.256Z,100065
2015-09-26T02:08:11.444Z,100078
2015-09-26T02:08:29.819Z,100068
2015-09-26T02:08:48.162Z,100075
2015-09-26T02:09:06.525Z,100062
2015-09-26T02:09:24.884Z,100075
2015-09-26T02:09:43.243Z,100068
2015-09-26T02:10:01.605Z,100070
2015-09-26T02:10:19.949Z,100059
2015-09-26T02:10:38.308Z,100065
2015-09-26T02:10:56.670Z,100065
2015-09-26T02:11:15.030Z,100062
2015-09-26T02:11:33.389Z,100070
2015-09-26T02:11:51.748Z,100075
2015-09-26T02:12:10.111Z,100078
2015-09-26T02:12:28.455Z,100070
2015-09-26T02:12:46.814Z,100070
2015-09-26T02:13:05.192Z,100078
2015-09-26T02:13:23.536Z,100062
2015-09-26T02:13:41.895Z,100070
2015-09-26T02:14:00.257Z,100068
2015-09-26T02:14:18.617Z,100070
2015-09-26T02:14:36.961Z,100070
2015-09-26T02:14:55.320Z,100078
2015-09-26T02:15:13.682Z,100062
2015-09-26T02:15:31.385Z,100065
2015-09-26T02:15:49.745Z,100070
2015-09-26T02:16:08.106Z,100065
2015-09-26T02:16:26.450Z,100062
2015-09-26T02:16:44.809Z,100065
2015-09-26T02:17:03.172Z,100059
2015-09-26T02:17:21.531Z,100059
2015-09-26T02:17:39.890Z,100056
2015-09-26T02:17:58.250Z,100056
2015-09-26T02:18:16.611Z,100065
2015-09-26T02:18:34.971Z,100068
2015-09-26T02:18:53.314Z,100068
2015-09-26T02:19:11.677Z,100065
2015-09-26T02:19:30.036Z,100056
2015-09-26T02:19:47.739Z,100065
2015-09-26T02:20:06.102Z,100056
2015-09-26T02:20:24.461Z,100062
2015-09-26T02:20:42.820Z,100068
2015-09-26T02:21:01.180Z,100068
2015-09-26T02:21:19.541Z,100068
2015-09-26T02:21:37.900Z,100065
2015-09-26T02:21:56.244Z,100065
2015-09-26T02:22:14.747Z,100059
2015-09-26T02:22:33.107Z,100068
2015-09-26T02:22:51.466Z,100070
2015-09-26T02:23:09.828Z,100059
2015-09-26T02:23:27.375Z,100065
2015-09-26T02:23:45.735Z,100065
2015-09-26T02:24:04.078Z,100065
2015-09-26T02:24:22.456Z,100065
2015-09-26T02:24:40.800Z,100059
2015-09-26T02:24:59.159Z,100065
2015-09-26T02:25:17.521Z,100065
2015-09-26T02:25:35.865Z,100051
2015-09-26T02:25:54.224Z,100059
2015-09-26T02:26:12.602Z,100062
2015-09-26T02:26:30.946Z,100059
2015-09-26T02:26:49.305Z,100056
2015-09-26T02:27:07.664Z,100065
2015-09-26T02:27:26.116Z,100056
2015-09-26T02:27:44.459Z,100062
2015-09-26T02:28:02.819Z,100068
2015-09-26T02:28:21.181Z,100056
2015-09-26T02:28:39.556Z,100070
2015-09-26T02:28:57.884Z,100068
2015-09-26T02:29:16.247Z,100068
2015-09-26T02:29:34.606Z,100062
2015-09-26T02:29:53.106Z,100062
2015-09-26T02:30:11.465Z,100065
2015-09-26T02:30:29.828Z,100068
2015-09-26T02:30:48.187Z,100048
2015-09-26T02:31:06.531Z,100059
2015-09-26T02:31:24.892Z,100056
2015-09-26T02:31:43.252Z,100056
2015-09-26T02:32:00.955Z,100059
2015-09-26T02:32:19.317Z,100068
2015-09-26T02:32:37.677Z,100062
2015-09-26T02:32:56.036Z,100065
2015-09-26T02:33:14.380Z,100059
2015-09-26T02:33:32.742Z,100065
2015-09-26T02:33:51.101Z,100070
2015-09-26T02:34:09.476Z,100068
2015-09-26T02:34:27.822Z,100062
2015-09-26T02:34:46.182Z,100065
2015-09-26T02:35:04.541Z,100062
2015-09-26T02:35:22.919Z,100065
2015-09-26T02:35:41.263Z,100065
2015-09-26T02:35:59.622Z,100065
2015-09-26T02:36:17.981Z,100068
2015-09-26T02:36:36.343Z,100068
2015-09-26T02:36:54.702Z,100059
2015-09-26T02:37:13.062Z,100070
2015-09-26T02:37:31.424Z,100056
2015-09-26T02:37:49.783Z,100062
2015-09-26T02:38:08.143Z,100075
2015-09-26T02:38:26.505Z,100059
2015-09-26T02:38:44.864Z,100075
2015-09-26T02:39:03.224Z,100065
2015-09-26T02:39:21.583Z,100065
2015-09-26T02:39:39.946Z,100059
2015-09-26T02:39:58.305Z,100070
2015-09-26T02:40:16.649Z,100056
2015-09-26T02:40:35.011Z,100068
2015-09-26T02:40:53.370Z,100059
2015-09-26T02:41:11.730Z,100062
2015-09-26T02:41:30.108Z,100065
2015-09-26T02:41:48.467Z,100068
2015-09-26T02:42:06.811Z,100059
2015-09-26T02:42:25.170Z,100062
2015-09-26T02:42:43.532Z,100062
2015-09-26T02:43:01.891Z,100062
2015-09-26T02:43:20.250Z,100065
2015-09-26T02:43:38.613Z,100068
2015-09-26T02:43:56.972Z,100059
2015-09-26T02:44:15.347Z,100062
2015-09-26T02:44:33.694Z,100075
2015-09-26T02:44:52.053Z,100068
2015-09-26T02:45:10.413Z,100070
2015-09-26T02:45:28.772Z,100070
2015-09-26T02:45:47.134Z,100065
2015-09-26T02:46:05.494Z,100070
2015-09-26T02:46:23.853Z,100059
2015-09-26T02:46:42.215Z,100062
2015-09-26T02:47:00.574Z,100062
2015-09-26T02:47:18.933Z,100059
2015-09-26T02:47:37.296Z,100062
2015-09-26T02:47:55.655Z,100065
2015-09-26T02:48:14.014Z,100056
2015-09-26T02:48:32.374Z,100068
2015-09-26T02:48:50.735Z,100059
2015-09-26T02:49:09.079Z,100068
2015-09-26T02:49:27.438Z,100068
2015-09-26T02:49:45.801Z,100065
2015-09-26T02:50:04.160Z,100065
2015-09-26T02:50:22.519Z,100062
2015-09-26T02:50:40.882Z,100068
2015-09-26T02:50:59.241Z,100062
2015-09-26T02:51:17.601Z,100059
2015-09-26T02:51:35.962Z,100062
2015-09-26T02:51:54.321Z,100070
2015-09-26T02:52:12.681Z,100062
2015-09-26T02:52:31.040Z,100068
2015-09-26T02:52:49.246Z,100065
2015-09-26T02:53:07.606Z,100059
2015-09-26T02:53:25.965Z,100068
2015-09-26T02:53:44.327Z,100059
2015-09-26T02:54:02.671Z,100070
2015-09-26T02:54:21.030Z,100059
2015-09-26T02:54:39.393Z,100053
2015-09-26T02:54:57.752Z,100070
2015-09-26T02:55:15.955Z,100056
2015-09-26T02:55:34.158Z,100059
2015-09-26T02:55:52.629Z,100056
2015-09-26T02:56:10.739Z,100059
2015-09-26T02:56:29.098Z,100053
2015-09-26T02:56:47.460Z,100062
2015-09-26T02:57:05.820Z,100062
2015-09-26T02:57:24.163Z,100059
2015-09-26T02:57:42.526Z,100059
2015-09-26T02:58:00.885Z,100070
2015-09-26T02:58:19.245Z,100056
2015-09-26T02:58:37.604Z,100056
2015-09-26T02:58:55.966Z,100059
2015-09-26T02:59:14.326Z,100068
2015-09-26T02:59:32.685Z,100048
2015-09-26T02:59:51.047Z,100059
2015-09-26T03:00:09.407Z,100070
2015-09-26T03:00:27.766Z,100068
2015-09-26T03:00:46.128Z,100065
2015-09-26T03:01:04.487Z,100059
2015-09-26T03:01:22.846Z,100056
2015-09-26T03:01:41.193Z,100075
2015-09-26T03:01:59.552Z,100056
2015-09-26T03:02:17.912Z,100059
2015-09-26T03:02:36.271Z,100065
2015-09-26T03:02:54.634Z,100051
2015-09-26T03:03:12.993Z,100065
2015-09-26T03:03:31.352Z,100065
2015-09-26T03:03:49.715Z,100059
2015-09-26T03:04:08.074Z,100068
2015-09-26T03:04:26.433Z,100053
2015-09-26T03:04:44.795Z,100059
2015-09-26T03:05:03.154Z,100059
2015-09-26T03:05:21.514Z,100065
2015-09-26T03:05:39.873Z,100056
2015-09-26T03:05:58.234Z,100053
2015-09-26T03:06:16.594Z,100051
2015-09-26T03:06:34.953Z,100059
2015-09-26T03:06:53.316Z,100059
2015-09-26T03:07:11.676Z,100056
2015-09-26T03:07:30.035Z,100062
2015-09-26T03:07:48.381Z,100059
2015-09-26T03:08:06.584Z,100065
2015-09-26T03:08:24.943Z,100053
2015-09-26T03:08:43.303Z,100059
2015-09-26T03:09:01.664Z,100068
2015-09-26T03:09:20.024Z,100059
2015-09-26T03:09:38.383Z,100048
2015-09-26T03:09:56.745Z,100070
2015-09-26T03:10:15.089Z,100059
2015-09-26T03:10:33.448Z,100059
2015-09-26T03:10:51.811Z,100070
2015-09-26T03:11:10.170Z,100056
2015-09-26T03:11:28.530Z,100059
2015-09-26T03:11:46.889Z,100056
2015-09-26T03:12:05.251Z,100059
2015-09-26T03:12:23.611Z,100070
2015-09-26T03:12:41.970Z,100062
2015-09-26T03:13:00.332Z,100059
2015-09-26T03:13:18.692Z,100062
2015-09-26T03:13:37.036Z,100053
2015-09-26T03:13:55.398Z,100059
2015-09-26T03:14:13.757Z,100059
2015-09-26T03:14:32.117Z,100053
2015-09-26T03:14:50.476Z,100056
2015-09-26T03:15:08.837Z,100068
2015-09-26T03:15:27.197Z,100062
2015-09-26T03:15:45.556Z,100059
2015-09-26T03:16:03.903Z,100059
2015-09-26T03:16:22.262Z,100062
2015-09-26T03:16:40.622Z,100059
2015-09-26T03:16:58.343Z,100056
2015-09-26T03:17:16.703Z,100048
2015-09-26T03:17:35.062Z,100065
2015-09-26T03:17:53.265Z,100065
2015-09-26T03:18:11.611Z,100065
2015-09-26T03:18:29.970Z,100051
2015-09-26T03:18:48.330Z,100056
2015-09-26T03:19:06.709Z,100056
2015-09-26T03:19:25.068Z,100062
2015-09-26T03:19:43.428Z,100051
2015-09-26T03:20:01.789Z,100053
2015-09-26T03:20:19.492Z,100048
2015-09-26T03:20:37.851Z,100053
2015-09-26T03:20:56.197Z,100053
2015-09-26T03:21:14.557Z,100048
2015-09-26T03:21:32.916Z,100051
2015-09-26T03:21:51.275Z,100051
2015-09-26T03:22:09.638Z,100062
2015-09-26T03:22:27.997Z,100059
2015-09-26T03:22:46.356Z,100051
2015-09-26T03:23:04.063Z,100059
2015-09-26T03:23:22.422Z,100048
2015-09-26T03:23:40.781Z,100053
2015-09-26T03:23:59.144Z,100053
2015-09-26T03:24:17.503Z,100056
2015-09-26T03:24:35.878Z,100053
2015-09-26T03:24:53.566Z,100062
2015-09-26T03:25:11.928Z,100056
2015-09-26T03:25:30.287Z,100059
2015-09-26T03:25:48.647Z,100045
2015-09-26T03:26:07.008Z,100062
2015-09-26T03:26:25.367Z,100053
2015-09-26T03:26:43.727Z,100059
2015-09-26T03:27:02.088Z,100053
2015-09-26T03:27:20.448Z,100051
2015-09-26T03:27:38.807Z,100056
2015-09-26T03:27:57.166Z,100056
2015-09-26T03:28:15.530Z,100059
2015-09-26T03:28:33.233Z,100056
2015-09-26T03:28:51.577Z,100048
2015-09-26T03:29:09.939Z,100051
2015-09-26T03:29:28.298Z,100045
2015-09-26T03:29:46.658Z,100051
2015-09-26T03:30:04.363Z,100048
2015-09-26T03:30:22.722Z,100051
2015-09-26T03:30:41.082Z,100053
2015-09-26T03:30:59.441Z,100062
2015-09-26T03:31:17.803Z,100059
2015-09-26T03:31:36.163Z,100053
2015-09-26T03:31:54.522Z,100051
2015-09-26T03:32:12.884Z,100056
2015-09-26T03:32:31.244Z,100053
2015-09-26T03:32:49.728Z,100051
2015-09-26T03:33:07.933Z,100056
2015-09-26T03:33:26.293Z,100059
2015-09-26T03:33:44.652Z,100045
2015-09-26T03:34:03.011Z,100053
2015-09-26T03:34:21.374Z,100056
2015-09-26T03:34:39.733Z,100053
2015-09-26T03:34:57.436Z,100062
2015-09-26T03:35:15.799Z,100062
2015-09-26T03:35:34.158Z,100051
2015-09-26T03:35:52.517Z,100059
2015-09-26T03:36:10.880Z,100051
2015-09-26T03:36:29.239Z,100056
2015-09-26T03:36:47.599Z,100059
2015-09-26T03:37:05.974Z,100062
2015-09-26T03:37:24.319Z,100062
2015-09-26T03:37:42.679Z,100051
2015-09-26T03:38:01.038Z,100065
2015-09-26T03:38:18.744Z,100056
2015-09-26T03:38:37.104Z,100051
2015-09-26T03:38:54.807Z,100051
2015-09-26T03:39:13.168Z,100053
2015-09-26T03:39:31.527Z,100051
2015-09-26T03:39:49.887Z,100062
2015-09-26T03:40:08.246Z,100045
2015-09-26T03:40:26.609Z,100062
2015-09-26T03:40:44.984Z,100062
2015-09-26T03:41:02.671Z,100039
2015-09-26T03:41:21.033Z,100048
2015-09-26T03:41:39.408Z,100062
2015-09-26T03:41:57.752Z,100056
2015-09-26T03:42:16.114Z,100056
2015-09-26T03:42:33.832Z,100039
2015-09-26T03:42:52.176Z,100059
2015-09-26T03:43:09.895Z,100045
2015-09-26T03:43:27.601Z,100048
2015-09-26T03:43:45.960Z,100045
2015-09-26T03:44:04.320Z,100056
2015-09-26T03:44:22.682Z,100059
2015-09-26T03:44:41.041Z,100051
2015-09-26T03:44:59.401Z,100059
2015-09-26T03:45:17.760Z,100062
2015-09-26T03:45:36.123Z,100051
2015-09-26T03:45:54.482Z,100056
2015-09-26T03:46:12.841Z,100056
2015-09-26T03:46:31.204Z,100062
2015-09-26T03:46:48.907Z,100053
2015-09-26T03:47:07.266Z,100053
2015-09-26T03:47:25.753Z,100051
2015-09-26T03:47:43.471Z,100059
2015-09-26T03:48:01.831Z,100051
2015-09-26T03:48:20.190Z,100045
2015-09-26T03:48:38.537Z,100051